Time;durP1;ratioP1;P1;durP2;ratioP2;P2;SDS_P1;SDS_P2;PMS_P1;PMS_P2;Temp;Humidity;BMP_temperature;BMP_pressure;BME280_temperature;BME280_humidity;BME280_pressure;Samples;Min_cycle;Max_cycle;Signal;HPM_P1;HPM_P2
2022/06/12 00:00:25;;;;;;;1.98;1.88;;;21.10;99.90;;;;;;5050687;28;20224;-52
2022/06/12 00:02:52;;;;;;;2.67;1.90;;;21.10;99.90;;;;;;5038445;28;20259;-55
2022/06/12 00:05:22;;;;;;;1.35;1.33;;;21.10;99.90;;;;;;5045426;28;20662;-56
2022/06/12 00:07:49;;;;;;;2.03;1.88;;;21.00;99.90;;;;;;5055366;28;20680;-55
2022/06/12 00:10:16;;;;;;;3.13;2.22;;;21.00;99.90;;;;;;5054186;28;20255;-56
2022/06/12 00:12:46;;;;;;;2.58;1.83;;;21.00;99.90;;;;;;5051783;28;20280;-55
2022/06/12 00:15:16;;;;;;;2.22;2.13;;;20.90;99.90;;;;;;5051856;28;20197;-54
2022/06/12 00:17:43;;;;;;;3.67;2.42;;;21.00;99.90;;;;;;5046515;28;20297;-55
2022/06/12 00:20:13;;;;;;;2.00;1.90;;;20.90;99.90;;;;;;5054230;28;20198;-52
2022/06/12 00:22:41;;;;;;;2.13;2.00;;;20.90;99.90;;;;;;5052561;28;20222;-55
2022/06/12 00:25:09;;;;;;;1.77;1.67;;;20.90;99.90;;;;;;5051138;28;20236;-55
2022/06/12 00:27:37;;;;;;;1.50;1.40;;;20.90;99.90;;;;;;5051985;28;20210;-52
2022/06/12 00:30:09;;;;;;;1.92;1.83;;;20.90;99.90;;;;;;5053237;28;20252;-53
2022/06/12 00:32:36;;;;;;;1.83;1.70;;;20.80;99.90;;;;;;5052013;28;20263;-55
2022/06/12 00:35:05;;;;;;;1.70;1.60;;;20.90;99.90;;;;;;5052186;28;20198;-55
2022/06/12 00:37:33;;;;;;;1.55;1.50;;;20.90;99.90;;;;;;5052325;28;20267;-55
2022/06/12 00:40:00;;;;;;;1.48;1.38;;;20.80;99.90;;;;;;5051890;28;20194;-54
2022/06/12 00:42:30;;;;;;;1.30;1.20;;;20.80;99.90;;;;;;5048399;28;20199;-52
2022/06/12 00:45:01;;;;;;;1.40;1.38;;;20.90;99.90;;;;;;5041846;28;20208;-55
2022/06/12 00:47:29;;;;;;;1.67;1.50;;;20.90;99.90;;;;;;5053756;28;20212;-53
2022/06/12 00:50:00;;;;;;;1.77;1.48;;;20.80;99.90;;;;;;5051174;28;20539;-52
2022/06/12 00:52:33;;;;;;;1.33;1.33;;;20.80;99.90;;;;;;5053436;28;20283;-52
2022/06/12 00:55:07;;;;;;;1.83;1.40;;;20.80;99.90;;;;;;5052072;28;20197;-56
2022/06/12 00:57:34;;;;;;;3.05;1.33;;;20.80;99.90;;;;;;5052870;28;20279;-54
2022/06/12 01:00:06;;;;;;;1.48;1.40;;;20.80;99.90;;;;;;5052550;28;20198;-55
2022/06/12 01:02:36;;;;;;;1.42;1.40;;;20.90;99.90;;;;;;5052283;28;20239;-54
2022/06/12 01:07:54;;;;;;;1.52;1.42;;;20.80;99.90;;;;;;5023629;28;20212;-55
2022/06/12 01:10:25;;;;;;;1.52;1.42;;;20.80;99.90;;;;;;5041871;28;20209;-54
2022/06/12 01:12:56;;;;;;;1.20;1.20;;;20.80;99.90;;;;;;5034393;28;20191;-50
2022/06/12 01:15:27;;;;;;;0.90;0.90;;;20.80;99.90;;;;;;5055809;28;20221;-49
2022/06/12 01:17:57;;;;;;;1.30;1.30;;;20.80;99.90;;;;;;5054951;28;20522;-55
2022/06/12 01:20:28;;;;;;;1.10;1.10;;;20.80;99.90;;;;;;5051433;28;20668;-54
2022/06/12 01:23:36;;;;;;;1.40;1.40;;;20.80;99.90;;;;;;5051336;28;20261;-55
2022/06/12 01:26:45;;;;;;;2.05;1.85;;;20.80;99.90;;;;;;5045504;28;20200;-55
2022/06/12 01:29:21;;;;;;;1.40;1.30;;;20.70;99.90;;;;;;4982880;28;20504;-49
2022/06/12 01:31:55;;;;;;;1.23;1.15;;;20.70;99.90;;;;;;5051024;28;20185;-52
2022/06/12 01:34:34;;;;;;;1.40;1.40;;;20.70;99.90;;;;;;5052215;28;20235;-54
2022/06/12 01:37:21;;;;;;;1.30;1.30;;;20.60;99.90;;;;;;5040338;28;20220;-53
2022/06/12 01:39:58;;;;;;;1.90;1.65;;;20.60;99.90;;;;;;5050170;28;20279;-53
2022/06/12 01:42:35;;;;;;;1.58;1.48;;;20.60;99.90;;;;;;5050518;28;20255;-47
2022/06/12 01:45:16;;;;;;;1.80;1.70;;;20.60;99.90;;;;;;5039988;28;20259;-49
2022/06/12 01:47:52;;;;;;;1.30;1.30;;;20.60;99.90;;;;;;5054445;28;20198;-55
2022/06/12 01:50:27;;;;;;;1.88;1.35;;;20.50;99.90;;;;;;5053425;28;20201;-54
2022/06/12 01:53:01;;;;;;;1.20;1.10;;;20.50;99.90;;;;;;5055550;28;20193;-52
2022/06/12 01:55:36;;;;;;;3.40;1.30;;;20.50;99.90;;;;;;5052387;28;20266;-48
2022/06/12 01:58:09;;;;;;;1.55;1.50;;;20.50;99.90;;;;;;5051334;28;20277;-53
2022/06/12 02:00:41;;;;;;;2.05;1.95;;;20.50;99.90;;;;;;5055109;28;20213;-49
2022/06/12 02:03:13;;;;;;;3.58;1.92;;;20.50;99.90;;;;;;5044397;28;20227;-55
2022/06/12 02:05:46;;;;;;;2.35;2.15;;;20.50;99.90;;;;;;5050508;28;20193;-54
2022/06/12 02:08:18;;;;;;;2.40;2.20;;;20.50;99.90;;;;;;5037957;28;20245;-56
2022/06/12 02:10:50;;;;;;;1.73;1.63;;;20.50;99.90;;;;;;5029393;28;20740;-54
2022/06/12 02:13:22;;;;;;;1.80;1.70;;;20.50;99.90;;;;;;5045014;28;20276;-52
2022/06/12 02:15:59;;;;;;;1.67;1.60;;;20.50;99.90;;;;;;5051534;28;20550;-51
2022/06/12 02:18:31;;;;;;;1.92;1.83;;;20.40;99.90;;;;;;5054498;28;20275;-57
2022/06/12 02:21:06;;;;;;;2.25;2.15;;;20.40;99.90;;;;;;5051244;28;20193;-56
2022/06/12 02:23:40;;;;;;;2.40;2.22;;;20.40;99.90;;;;;;5051411;28;20225;-55
2022/06/12 02:26:11;;;;;;;2.15;2.05;;;20.40;99.90;;;;;;5050295;28;20205;-55
2022/06/12 02:28:42;;;;;;;1.70;1.60;;;20.40;99.90;;;;;;5037758;28;20254;-56
2022/06/12 02:31:16;;;;;;;1.80;1.70;;;20.40;99.90;;;;;;5052407;28;20216;-54
2022/06/12 02:33:47;;;;;;;2.85;1.90;;;20.40;99.90;;;;;;5051646;28;20274;-54
2022/06/12 02:36:19;;;;;;;1.60;1.50;;;20.30;99.90;;;;;;5051927;28;20281;-54
2022/06/12 02:38:51;;;;;;;1.83;1.73;;;20.30;99.90;;;;;;5051814;28;20217;-56
2022/06/12 02:41:23;;;;;;;1.90;1.80;;;20.30;99.90;;;;;;5051668;28;20218;-53
2022/06/12 02:43:55;;;;;;;1.80;1.70;;;20.30;99.90;;;;;;5045904;28;20198;-55
2022/06/12 02:46:31;;;;;;;1.88;1.77;;;20.30;99.90;;;;;;5052815;28;20197;-55
2022/06/12 02:48:58;;;;;;;1.80;1.70;;;20.30;99.90;;;;;;5052217;28;20693;-55
2022/06/12 02:51:32;;;;;;;1.65;1.55;;;20.30;99.90;;;;;;5051565;28;20327;-55
2022/06/12 02:54:10;;;;;;;2.05;1.95;;;20.20;99.90;;;;;;5051924;28;20259;-55
2022/06/12 02:56:44;;;;;;;2.28;1.83;;;20.30;99.90;;;;;;5049405;28;20205;-55
2022/06/12 02:59:24;;;;;;;1.98;1.88;;;20.30;99.90;;;;;;5051549;28;20193;-55
2022/06/12 03:02:02;;;;;;;1.60;1.50;;;20.30;99.90;;;;;;5051203;28;20193;-54
2022/06/12 03:04:37;;;;;;;1.75;1.65;;;20.30;99.90;;;;;;5039430;28;20189;-55
2022/06/12 03:07:04;;;;;;;1.80;1.70;;;20.30;99.90;;;;;;5047950;28;20225;-53
2022/06/12 03:09:31;;;;;;;1.70;1.60;;;20.30;99.90;;;;;;5029012;28;20226;-55
2022/06/12 03:11:59;;;;;;;1.63;1.52;;;20.30;99.90;;;;;;5045999;28;20213;-54
2022/06/12 03:14:26;;;;;;;3.08;1.70;;;20.30;99.90;;;;;;5049141;28;20313;-54
2022/06/12 03:16:55;;;;;;;2.17;1.83;;;20.20;99.90;;;;;;5049609;28;20202;-52
2022/06/12 03:19:24;;;;;;;1.73;1.63;;;20.20;99.90;;;;;;5050043;28;20674;-55
2022/06/12 03:22:00;;;;;;;1.88;1.77;;;20.20;99.90;;;;;;5049546;28;20709;-54
2022/06/12 03:24:41;;;;;;;2.28;2.15;;;20.20;99.90;;;;;;5034755;28;20313;-51
2022/06/12 03:27:38;;;;;;;1.95;1.60;;;20.20;99.90;;;;;;5045371;28;20198;-54
2022/06/12 03:30:13;;;;;;;1.85;1.75;;;20.20;99.90;;;;;;5047054;28;20245;-54
2022/06/12 03:32:52;;;;;;;2.15;2.05;;;20.20;99.90;;;;;;5050227;28;20677;-53
2022/06/12 03:35:29;;;;;;;1.85;1.75;;;20.20;99.90;;;;;;5059879;28;20312;-52
2022/06/12 03:38:02;;;;;;;1.90;1.80;;;20.20;99.90;;;;;;5052311;28;20242;-53
2022/06/12 03:40:37;;;;;;;2.08;1.98;;;20.30;99.90;;;;;;5049729;28;20243;-55
2022/06/12 03:43:11;;;;;;;2.05;1.90;;;20.20;99.90;;;;;;5053343;28;20695;-54
2022/06/12 03:45:45;;;;;;;1.98;1.58;;;20.20;99.90;;;;;;5051563;28;20727;-55
2022/06/12 03:48:22;;;;;;;1.60;1.50;;;20.20;99.90;;;;;;5051675;28;20262;-53
2022/06/12 03:51:04;;;;;;;2.20;1.88;;;20.20;99.90;;;;;;5052837;28;20267;-53
2022/06/12 03:53:37;;;;;;;1.60;1.50;;;20.20;99.90;;;;;;5050771;28;20258;-55
2022/06/12 03:59:02;;;;;;;2.05;1.60;;;20.30;99.90;;;;;;5052300;28;20277;-55
2022/06/12 04:01:32;;;;;;;1.58;1.30;;;20.30;99.90;;;;;;5050704;28;20272;-55
2022/06/12 04:04:03;;;;;;;3.95;1.95;;;20.20;99.90;;;;;;5049803;28;20683;-53
2022/06/12 04:06:32;;;;;;;1.40;1.30;;;20.20;99.90;;;;;;5050810;28;20656;-55
2022/06/12 04:09:04;;;;;;;1.88;1.75;;;20.20;99.90;;;;;;5038983;28;20228;-55
2022/06/12 04:11:35;;;;;;;1.77;1.50;;;20.20;99.90;;;;;;5050114;28;20283;-55
2022/06/12 04:14:05;;;;;;;2.17;1.98;;;20.20;99.90;;;;;;5040282;28;20202;-51
2022/06/12 04:16:37;;;;;;;5.53;2.10;;;20.20;99.90;;;;;;5039142;28;20206;-55
2022/06/12 04:19:08;;;;;;;2.20;1.83;;;20.20;99.90;;;;;;5048432;28;20221;-52
2022/06/12 04:21:40;;;;;;;2.15;1.50;;;20.20;99.90;;;;;;5048656;28;20208;-55
2022/06/12 04:24:14;;;;;;;1.52;1.42;;;20.20;99.90;;;;;;5046715;28;20241;-54
2022/06/12 04:26:45;;;;;;;3.78;1.40;;;20.20;99.90;;;;;;5049317;28;20211;-55
2022/06/12 04:29:22;;;;;;;1.30;1.20;;;20.20;99.90;;;;;;5046282;28;20577;-53
2022/06/12 04:31:51;;;;;;;1.60;1.50;;;20.20;99.90;;;;;;5048235;28;20292;-53
2022/06/12 04:34:22;;;;;;;1.80;1.30;;;20.20;99.90;;;;;;5048756;28;20202;-54
2022/06/12 04:36:52;;;;;;;1.45;1.33;;;20.30;99.90;;;;;;5048711;28;20194;-53
2022/06/12 04:39:22;;;;;;;1.58;1.30;;;20.30;99.90;;;;;;5047650;28;20225;-55
2022/06/12 04:41:50;;;;;;;1.95;1.20;;;20.20;99.90;;;;;;5045863;28;20186;-54
2022/06/12 04:44:18;;;;;;;2.75;1.15;;;20.30;99.90;;;;;;5047966;28;20194;-52
2022/06/12 04:46:47;;;;;;;1.45;1.35;;;20.30;99.90;;;;;;5052138;28;20198;-47
2022/06/12 04:49:18;;;;;;;2.33;1.65;;;20.30;99.90;;;;;;5044866;28;20603;-48
2022/06/12 04:51:48;;;;;;;1.30;1.25;;;20.40;99.90;;;;;;5049600;28;20206;-52
2022/06/12 04:54:16;;;;;;;2.17;1.38;;;20.30;99.90;;;;;;5044551;28;20197;-50
2022/06/12 04:56:44;;;;;;;4.32;1.90;;;20.40;99.90;;;;;;5052851;28;20604;-52
2022/06/12 04:59:14;;;;;;;2.63;1.45;;;20.40;99.90;;;;;;5055753;28;20193;-52
2022/06/12 05:01:41;;;;;;;1.58;1.40;;;20.40;99.90;;;;;;5055473;28;20235;-51
2022/06/12 05:04:08;;;;;;;1.50;1.35;;;20.40;99.90;;;;;;5059035;28;20201;-52
2022/06/12 05:06:37;;;;;;;1.60;1.35;;;20.50;99.90;;;;;;5055185;28;20540;-52
2022/06/12 05:09:07;;;;;;;1.42;1.33;;;20.50;99.90;;;;;;5058784;28;20225;-53
2022/06/12 05:11:34;;;;;;;1.80;1.42;;;20.50;99.90;;;;;;5056832;28;20295;-51
2022/06/12 05:14:01;;;;;;;2.53;1.20;;;20.60;99.90;;;;;;5057577;28;20661;-53
2022/06/12 05:16:33;;;;;;;1.55;1.10;;;20.60;99.90;;;;;;5058052;28;20193;-51
2022/06/12 05:19:01;;;;;;;1.67;1.20;;;20.60;99.90;;;;;;5053808;28;20194;-52
2022/06/12 05:21:30;;;;;;;1.45;1.10;;;20.60;99.90;;;;;;5055927;28;20198;-53
2022/06/12 05:23:58;;;;;;;2.65;1.20;;;20.60;99.90;;;;;;5056926;28;20284;-51
2022/06/12 05:26:27;;;;;;;2.05;1.17;;;20.70;99.90;;;;;;5048469;28;20535;-49
2022/06/12 05:28:55;;;;;;;1.20;1.10;;;20.70;99.90;;;;;;5051229;28;20699;-53
2022/06/12 05:31:23;;;;;;;1.77;1.00;;;20.60;99.90;;;;;;5054109;28;20237;-53
2022/06/12 05:33:50;;;;;;;1.13;1.10;;;20.70;99.90;;;;;;5052279;28;20213;-52
2022/06/12 05:36:18;;;;;;;2.25;1.00;;;20.70;99.90;;;;;;5053572;28;20201;-52
2022/06/12 05:38:46;;;;;;;2.13;1.33;;;20.70;99.90;;;;;;5053623;28;20692;-48
2022/06/12 05:41:13;;;;;;;1.75;1.40;;;20.70;99.90;;;;;;5053718;28;20201;-51
2022/06/12 05:43:42;;;;;;;1.23;1.20;;;20.80;99.90;;;;;;5043624;28;20201;-56
2022/06/12 05:46:10;;;;;;;0.98;0.95;;;20.80;99.90;;;;;;5055010;28;20653;-55
2022/06/12 05:48:38;;;;;;;2.15;1.30;;;20.80;99.90;;;;;;5051667;28;20428;-54
2022/06/12 05:51:05;;;;;;;1.20;1.10;;;20.80;99.90;;;;;;5054692;28;20252;-55
2022/06/12 05:53:36;;;;;;;2.17;1.20;;;20.80;99.90;;;;;;5053276;28;20201;-55
2022/06/12 05:56:06;;;;;;;1.38;1.10;;;20.80;99.80;;;;;;5052102;28;20293;-55
2022/06/12 05:58:34;;;;;;;1.00;0.90;;;20.80;99.50;;;;;;5053711;28;20248;-55
2022/06/12 06:01:04;;;;;;;1.70;1.10;;;20.90;99.40;;;;;;5057271;28;20412;-55
2022/06/12 06:03:31;;;;;;;1.25;1.15;;;20.90;99.30;;;;;;5054420;28;20186;-55
2022/06/12 06:05:58;;;;;;;3.30;1.00;;;20.90;99.10;;;;;;5055658;28;20198;-55
2022/06/12 06:08:25;;;;;;;0.88;0.88;;;20.90;98.80;;;;;;5055221;28;20503;-55
2022/06/12 06:10:52;;;;;;;1.38;0.90;;;20.90;98.60;;;;;;5062214;28;20224;-54
2022/06/12 06:13:20;;;;;;;2.17;1.20;;;20.90;98.60;;;;;;5051338;28;20201;-54
2022/06/12 06:15:50;;;;;;;2.33;1.33;;;20.90;98.20;;;;;;5050402;28;20206;-53
2022/06/12 06:18:19;;;;;;;1.95;1.00;;;21.00;98.00;;;;;;5050170;28;20201;-57
2022/06/12 06:20:47;;;;;;;1.00;1.00;;;21.00;97.70;;;;;;5051924;28;20221;-54
2022/06/12 06:23:15;;;;;;;3.67;1.20;;;21.00;97.60;;;;;;5050474;28;20383;-56
2022/06/12 06:25:42;;;;;;;1.40;0.98;;;21.10;97.60;;;;;;5051474;28;20194;-56
2022/06/12 06:28:11;;;;;;;0.70;0.70;;;21.10;97.30;;;;;;5049805;28;20228;-55
2022/06/12 06:30:38;;;;;;;1.50;1.13;;;21.10;97.10;;;;;;5051173;28;20259;-56
2022/06/12 06:33:06;;;;;;;2.95;1.30;;;21.20;96.90;;;;;;5050585;28;20279;-56
2022/06/12 06:35:34;;;;;;;1.40;1.10;;;21.20;96.50;;;;;;5050233;28;20275;-54
2022/06/12 06:38:02;;;;;;;2.47;1.15;;;21.20;96.40;;;;;;5050378;28;20196;-56
2022/06/12 06:40:31;;;;;;;2.47;0.95;;;21.20;96.30;;;;;;5049722;28;20225;-56
2022/06/12 06:42:58;;;;;;;1.73;0.95;;;21.30;96.20;;;;;;5048935;28;20600;-54
2022/06/12 06:48:12;;;;;;;0.75;0.75;;;21.30;96.00;;;;;;5047852;28;20198;-54
2022/06/12 06:50:41;;;;;;;2.35;1.10;;;21.30;96.00;;;;;;5051301;28;20287;-55
2022/06/12 06:53:09;;;;;;;0.98;0.93;;;21.40;95.70;;;;;;5049088;28;20755;-53
2022/06/12 06:55:37;;;;;;;1.95;1.10;;;21.40;95.30;;;;;;5048631;28;20189;-56
2022/06/12 06:58:08;;;;;;;1.80;0.90;;;21.50;95.00;;;;;;5052666;28;20574;-55
2022/06/12 07:00:37;;;;;;;1.40;0.90;;;21.50;94.70;;;;;;5055527;28;20194;-53
2022/06/12 07:03:05;;;;;;;1.17;0.93;;;21.50;94.50;;;;;;5053722;28;20673;-60
2022/06/12 07:05:33;;;;;;;1.30;0.80;;;21.50;94.40;;;;;;5054405;28;20201;-54
2022/06/12 07:08:02;;;;;;;1.35;0.82;;;21.60;94.30;;;;;;5054598;28;20198;-56
2022/06/12 07:10:31;;;;;;;1.73;1.02;;;21.60;93.90;;;;;;5046625;28;20214;-55
2022/06/12 07:12:58;;;;;;;0.80;0.80;;;21.60;93.70;;;;;;5048929;28;20613;-57
2022/06/12 07:15:27;;;;;;;0.80;0.80;;;21.70;93.50;;;;;;5069288;28;20546;-56
2022/06/12 07:17:54;;;;;;;0.73;0.73;;;21.70;93.30;;;;;;5064612;28;20292;-53
2022/06/12 07:20:25;;;;;;;1.23;0.80;;;21.80;93.20;;;;;;5055030;28;20284;-55
2022/06/12 07:22:52;;;;;;;0.73;0.73;;;21.90;93.00;;;;;;5069186;28;20201;-56
2022/06/12 07:25:21;;;;;;;1.42;1.30;;;21.90;92.60;;;;;;5059056;28;20264;-55
2022/06/12 07:27:49;;;;;;;1.25;1.00;;;21.90;92.20;;;;;;5058667;28;20218;-57
2022/06/12 07:30:19;;;;;;;0.80;0.73;;;22.00;91.80;;;;;;5061608;28;20275;-55
2022/06/12 07:32:47;;;;;;;0.70;0.70;;;22.00;91.30;;;;;;5059577;28;20313;-55
2022/06/12 07:35:15;;;;;;;2.20;1.20;;;22.00;91.10;;;;;;5061745;28;20229;-56
2022/06/12 07:37:42;;;;;;;1.55;1.13;;;22.10;90.70;;;;;;5060886;28;20261;-54
2022/06/12 07:40:15;;;;;;;1.73;1.00;;;22.10;90.50;;;;;;5058096;28;20189;-56
2022/06/12 07:42:44;;;;;;;0.80;0.80;;;22.10;90.40;;;;;;5058782;28;20550;-56
2022/06/12 07:45:13;;;;;;;1.05;0.98;;;22.20;90.10;;;;;;5065015;28;20231;-55
2022/06/12 07:47:40;;;;;;;0.80;0.80;;;22.30;88.20;;;;;;5064907;28;20223;-53
2022/06/12 07:50:08;;;;;;;0.73;0.73;;;22.30;87.20;;;;;;5037904;28;20198;-58
2022/06/12 07:52:37;;;;;;;2.17;1.10;;;22.30;86.80;;;;;;5050706;28;20226;-53
2022/06/12 07:55:05;;;;;;;1.52;0.98;;;22.40;85.60;;;;;;5049078;28;20240;-54
2022/06/12 07:57:32;;;;;;;1.50;0.77;;;22.50;85.00;;;;;;5052203;28;20244;-56
2022/06/12 08:00:01;;;;;;;1.52;1.02;;;22.50;84.40;;;;;;5050889;28;20689;-56
2022/06/12 08:02:28;;;;;;;0.93;0.70;;;22.60;83.90;;;;;;5052560;28;20215;-54
2022/06/12 08:04:55;;;;;;;0.80;0.80;;;22.60;83.60;;;;;;5050932;28;20206;-56
2022/06/12 08:07:22;;;;;;;1.00;0.73;;;22.70;83.50;;;;;;5052477;28;20201;-55
2022/06/12 08:09:49;;;;;;;1.08;0.85;;;22.80;83.20;;;;;;5051200;28;20204;-50
2022/06/12 08:12:17;;;;;;;1.85;0.80;;;22.80;82.50;;;;;;5046943;28;20719;-53
2022/06/12 08:14:44;;;;;;;0.80;0.80;;;22.90;82.10;;;;;;5047807;28;20190;-53
2022/06/12 08:17:12;;;;;;;1.17;0.80;;;22.90;81.30;;;;;;5058271;28;20193;-52
2022/06/12 08:22:24;;;;;;;0.80;0.77;;;23.10;80.30;;;;;;5066911;28;20193;-51
2022/06/12 08:24:51;;;;;;;0.73;0.70;;;23.10;79.60;;;;;;5067825;28;20765;-52
2022/06/12 08:27:18;;;;;;;0.98;0.73;;;23.10;79.50;;;;;;5041814;28;20283;-54
2022/06/12 08:29:45;;;;;;;0.68;0.68;;;23.10;78.70;;;;;;5072594;28;20266;-55
2022/06/12 08:32:19;;;;;;;0.85;0.75;;;23.20;78.10;;;;;;5031276;28;20222;-55
2022/06/12 08:34:50;;;;;;;0.60;0.60;;;23.20;77.80;;;;;;5049895;28;20225;-52
2022/06/12 08:37:21;;;;;;;0.50;0.50;;;23.30;77.50;;;;;;5064705;28;20280;-54
2022/06/12 08:39:49;;;;;;;0.60;0.60;;;23.40;77.40;;;;;;5053282;28;20247;-55
2022/06/12 08:42:22;;;;;;;1.08;0.70;;;23.40;77.00;;;;;;5052024;28;20201;-56
2022/06/12 08:44:53;;;;;;;0.70;0.70;;;23.50;76.50;;;;;;5054906;28;20193;-56
2022/06/12 08:47:30;;;;;;;1.40;0.80;;;23.50;75.40;;;;;;5053498;28;20221;-51
2022/06/12 08:50:05;;;;;;;1.08;0.60;;;23.60;73.80;;;;;;5055095;28;20221;-53
2022/06/12 08:52:36;;;;;;;1.85;0.90;;;23.60;73.20;;;;;;5053519;28;20324;-54
2022/06/12 08:55:13;;;;;;;0.60;0.60;;;23.60;72.60;;;;;;5042588;28;20236;-56
2022/06/12 08:57:49;;;;;;;1.08;0.50;;;23.60;72.10;;;;;;5053450;28;20560;-52
2022/06/12 09:00:20;;;;;;;0.43;0.43;;;23.70;71.70;;;;;;5053145;28;20189;-51
2022/06/12 09:02:49;;;;;;;0.70;0.70;;;23.80;71.50;;;;;;5053339;28;20252;-53
2022/06/12 09:05:20;;;;;;;0.70;0.70;;;23.80;71.30;;;;;;5053239;28;20226;-57
2022/06/12 09:07:51;;;;;;;0.70;0.68;;;23.90;70.80;;;;;;5053268;28;20259;-53
2022/06/12 09:10:30;;;;;;;0.90;0.90;;;23.90;70.60;;;;;;5052904;28;20221;-53
2022/06/12 09:13:08;;;;;;;0.70;0.70;;;24.00;70.20;;;;;;5045269;28;20452;-58
2022/06/12 09:15:42;;;;;;;1.33;0.80;;;24.00;70.00;;;;;;5051540;28;20248;-55
2022/06/12 09:18:24;;;;;;;1.60;0.85;;;24.10;69.40;;;;;;5055184;28;20197;-55
2022/06/12 09:21:03;;;;;;;1.25;1.00;;;24.10;67.60;;;;;;5050303;28;20608;-55
2022/06/12 09:23:37;;;;;;;1.20;0.80;;;24.10;67.20;;;;;;5052702;28;20697;-56
2022/06/12 09:26:15;;;;;;;0.95;0.90;;;24.20;67.10;;;;;;5049696;28;20280;-57
2022/06/12 09:28:48;;;;;;;0.65;0.65;;;24.30;66.90;;;;;;5050804;28;20201;-57
2022/06/12 09:31:23;;;;;;;0.75;0.65;;;24.30;66.80;;;;;;5039576;28;20252;-57
2022/06/12 09:34:04;;;;;;;0.70;0.70;;;24.50;67.00;;;;;;5040915;28;20690;-55
2022/06/12 09:36:52;;;;;;;1.00;0.80;;;24.50;67.10;;;;;;5048729;28;20232;-56
2022/06/12 09:39:31;;;;;;;1.10;0.90;;;24.60;66.70;;;;;;5049703;28;20605;-55
2022/06/12 09:42:06;;;;;;;4.15;0.60;;;24.70;66.70;;;;;;5052204;28;20262;-56
2022/06/12 09:44:43;;;;;;;0.70;0.70;;;24.70;66.60;;;;;;5037051;28;20198;-54
2022/06/12 09:47:13;;;;;;;1.45;0.80;;;24.70;66.60;;;;;;5041577;28;20300;-56
2022/06/12 09:49:52;;;;;;;1.02;0.70;;;24.80;66.50;;;;;;5050805;28;20311;-56
2022/06/12 09:52:56;;;;;;;0.70;0.70;;;24.80;66.30;;;;;;5049733;28;20198;-55
2022/06/12 09:55:35;;;;;;;3.28;1.02;;;25.00;67.00;;;;;;5039478;28;20587;-56
2022/06/12 09:58:10;;;;;;;1.17;0.80;;;24.90;65.40;;;;;;5052334;28;20237;-56
2022/06/12 10:00:41;;;;;;;0.90;0.80;;;24.90;65.50;;;;;;5044813;28;20259;-57
2022/06/12 10:03:16;;;;;;;1.33;0.80;;;24.90;65.40;;;;;;5050653;28;20197;-53
2022/06/12 10:05:50;;;;;;;0.88;0.88;;;25.00;65.00;;;;;;5068434;28;20192;-57
2022/06/12 10:08:22;;;;;;;0.75;0.60;;;25.00;64.80;;;;;;5050814;28;20198;-56
2022/06/12 10:10:55;;;;;;;1.60;1.00;;;25.00;64.40;;;;;;5051697;28;20201;-55
2022/06/12 10:13:26;;;;;;;0.88;0.88;;;25.00;64.30;;;;;;5061975;28;20270;-55
2022/06/12 10:15:59;;;;;;;0.80;0.80;;;25.10;64.50;;;;;;5049780;28;20289;-56
2022/06/12 10:18:33;;;;;;;0.93;0.85;;;25.10;64.50;;;;;;5030847;28;20203;-55
2022/06/12 10:21:07;;;;;;;1.45;0.80;;;25.10;64.40;;;;;;5046043;28;20258;-56
2022/06/12 10:23:34;;;;;;;1.80;0.90;;;25.10;64.20;;;;;;5054714;28;20701;-57
2022/06/12 10:26:15;;;;;;;1.73;0.75;;;25.10;64.30;;;;;;5049350;28;20198;-56
2022/06/12 10:28:42;;;;;;;1.38;0.90;;;25.20;64.30;;;;;;5049980;28;20206;-56
2022/06/12 10:31:20;;;;;;;1.00;0.80;;;25.30;63.50;;;;;;5050311;28;20273;-56
2022/06/12 10:33:50;;;;;;;1.75;1.10;;;25.20;63.10;;;;;;5043913;28;20207;-56
2022/06/12 10:36:26;;;;;;;0.90;0.75;;;25.20;63.10;;;;;;5030481;28;20199;-56
2022/06/12 10:39:05;;;;;;;0.75;0.75;;;25.10;63.10;;;;;;5046561;28;20200;-56
2022/06/12 10:41:33;;;;;;;1.10;0.80;;;25.20;63.40;;;;;;5066130;28;20589;-60
2022/06/12 10:44:00;;;;;;;1.52;0.88;;;25.20;63.10;;;;;;5049274;28;20217;-55
2022/06/12 10:46:30;;;;;;;0.73;0.73;;;25.20;63.10;;;;;;5036857;28;20240;-56
2022/06/12 10:49:01;;;;;;;0.77;0.77;;;25.20;63.30;;;;;;5049846;28;20200;-56
2022/06/12 10:51:36;;;;;;;1.88;0.80;;;25.20;63.20;;;;;;5058276;28;20248;-55
2022/06/12 10:54:16;;;;;;;1.13;0.90;;;25.20;63.10;;;;;;5040982;28;20741;-56
2022/06/12 10:56:49;;;;;;;0.80;0.80;;;25.10;63.00;;;;;;5041818;28;20586;-53
2022/06/12 10:59:35;;;;;;;1.25;0.70;;;25.00;63.00;;;;;;5059941;28;20197;-56
2022/06/12 11:02:34;;;;;;;1.63;1.13;;;25.10;63.20;;;;;;5057234;28;20225;-54
2022/06/12 11:05:13;;;;;;;0.80;0.80;;;25.20;63.00;;;;;;5049943;28;20202;-59
2022/06/12 11:07:51;;;;;;;0.85;0.80;;;25.20;63.00;;;;;;5067488;28;20606;-55
2022/06/12 11:10:31;;;;;;;1.90;1.20;;;25.30;63.30;;;;;;5057204;28;20220;-55
2022/06/12 11:13:21;;;;;;;1.40;0.98;;;25.40;63.20;;;;;;5055670;28;20727;-57
2022/06/12 11:16:09;;;;;;;0.95;0.95;;;25.40;63.30;;;;;;5049968;28;20233;-56
2022/06/12 11:18:59;;;;;;;0.90;0.82;;;25.50;63.20;;;;;;5043644;28;20253;-56
2022/06/12 11:21:38;;;;;;;0.70;0.70;;;25.60;63.10;;;;;;5063034;28;20275;-56
2022/06/12 11:24:15;;;;;;;1.85;1.00;;;25.60;62.60;;;;;;5049970;28;20253;-56
2022/06/12 11:27:05;;;;;;;0.70;0.65;;;25.60;62.20;;;;;;5044382;28;20276;-56
2022/06/12 11:30:07;;;;;;;0.80;0.80;;;25.50;62.10;;;;;;5050314;28;20257;-56
2022/06/12 11:32:48;;;;;;;1.20;0.73;;;25.50;62.60;;;;;;5039558;28;20272;-55
2022/06/12 11:35:32;;;;;;;3.45;0.90;;;25.40;62.60;;;;;;5050353;28;20194;-55
2022/06/12 11:38:16;;;;;;;1.15;0.85;;;25.40;62.60;;;;;;5050581;28;20642;-56
2022/06/12 11:40:53;;;;;;;1.63;0.80;;;25.40;62.50;;;;;;5048822;28;20562;-56
2022/06/12 11:43:27;;;;;;;1.95;1.00;;;25.50;62.40;;;;;;5049424;28;20206;-56
2022/06/12 11:46:03;;;;;;;1.25;1.15;;;25.50;62.20;;;;;;5049877;28;20227;-55
2022/06/12 11:48:52;;;;;;;1.17;0.90;;;25.60;62.00;;;;;;5037008;28;20226;-54
2022/06/12 11:51:31;;;;;;;0.77;0.77;;;25.50;62.00;;;;;;5043368;28;20233;-54
2022/06/12 11:54:17;;;;;;;0.75;0.60;;;25.50;62.00;;;;;;5049684;28;20205;-55
2022/06/12 11:56:55;;;;;;;0.90;0.77;;;25.50;62.10;;;;;;5038374;28;20236;-55
2022/06/12 11:59:34;;;;;;;4.85;1.25;;;25.50;63.20;;;;;;5049451;28;20275;-55
2022/06/12 12:02:08;;;;;;;1.55;1.20;;;25.40;65.90;;;;;;5048084;28;20631;-56
2022/06/12 12:05:12;;;;;;;2.42;1.10;;;25.40;67.30;;;;;;5049912;28;20714;-54
2022/06/12 12:07:53;;;;;;;1.52;1.10;;;25.30;68.10;;;;;;5015288;28;20216;-55
2022/06/12 12:10:40;;;;;;;1.85;0.98;;;25.30;69.00;;;;;;5050365;28;20272;-54
2022/06/12 12:13:12;;;;;;;1.90;1.17;;;25.40;69.60;;;;;;5055366;28;20283;-55
2022/06/12 12:15:45;;;;;;;1.65;1.30;;;25.40;70.00;;;;;;5051786;28;20201;-54
2022/06/12 12:18:20;;;;;;;1.38;1.08;;;25.30;70.70;;;;;;5051281;28;20709;-55
2022/06/12 12:20:50;;;;;;;2.08;1.45;;;25.20;70.80;;;;;;5049546;28;20228;-55
2022/06/12 12:23:21;;;;;;;2.25;1.40;;;25.10;70.80;;;;;;5049836;28;20265;-49
2022/06/12 12:25:51;;;;;;;1.85;1.00;;;25.00;71.10;;;;;;5048185;28;20197;-56
2022/06/12 12:28:28;;;;;;;2.05;1.20;;;25.00;71.30;;;;;;5050030;28;20221;-56
2022/06/12 12:31:00;;;;;;;3.53;1.35;;;25.00;71.30;;;;;;5038632;28;20201;-57
2022/06/12 12:33:28;;;;;;;1.55;1.05;;;24.90;71.50;;;;;;5050006;28;20209;-56
2022/06/12 12:41:42;;;;;;;1.38;0.90;;;24.80;72.40;;;;;;5049430;28;20219;-54
2022/06/12 12:44:13;;;;;;;2.33;1.10;;;24.70;73.00;;;;;;5048716;28;20193;-55
2022/06/12 12:46:45;;;;;;;1.52;0.93;;;24.50;73.30;;;;;;5050384;28;20255;-53
2022/06/12 12:49:24;;;;;;;1.02;1.00;;;24.50;73.70;;;;;;5049161;28;20251;-57
2022/06/12 12:52:04;;;;;;;1.75;1.00;;;24.50;74.00;;;;;;5037041;28;20646;-58
2022/06/12 12:54:43;;;;;;;1.85;1.00;;;24.40;74.20;;;;;;5058910;28;20205;-57
2022/06/12 12:57:11;;;;;;;0.85;0.82;;;24.30;74.50;;;;;;5064438;28;20661;-56
2022/06/12 12:59:43;;;;;;;1.45;0.80;;;24.20;74.70;;;;;;5067951;28;20208;-56
2022/06/12 13:02:28;;;;;;;0.80;0.80;;;24.20;75.00;;;;;;5064449;28;20650;-55
2022/06/12 13:05:00;;;;;;;0.75;0.75;;;24.20;75.10;;;;;;5044008;28;20193;-56
2022/06/12 13:07:57;;;;;;;1.55;0.95;;;24.10;75.20;;;;;;5066725;28;20570;-56
2022/06/12 13:10:54;;;;;;;1.10;1.00;;;24.20;75.50;;;;;;5061149;28;20201;-57
2022/06/12 13:13:44;;;;;;;0.75;0.75;;;24.10;75.60;;;;;;5038610;28;20230;-56
2022/06/12 13:16:22;;;;;;;0.82;0.80;;;24.00;75.90;;;;;;5051374;28;20553;-57
2022/06/12 13:19:12;;;;;;;2.13;1.30;;;24.10;76.40;;;;;;5044676;28;20247;-57
2022/06/12 13:21:51;;;;;;;0.80;0.80;;;24.10;76.80;;;;;;5052789;28;20717;-56
2022/06/12 13:24:51;;;;;;;0.98;0.85;;;24.00;77.20;;;;;;5043683;28;20222;-56
2022/06/12 13:27:22;;;;;;;1.10;1.00;;;24.00;77.70;;;;;;5050177;28;20233;-57
2022/06/12 13:29:50;;;;;;;1.73;1.10;;;23.90;78.40;;;;;;5051744;28;20224;-56
2022/06/12 13:32:24;;;;;;;1.20;1.08;;;23.80;78.60;;;;;;5052840;28;20209;-55
2022/06/12 13:34:57;;;;;;;1.02;1.00;;;23.80;78.80;;;;;;5051487;28;20256;-49